createdAt,value
2018-07-17T00:01:53.999Z,54.40
2018-07-17T00:03:58.659Z,55.00
2018-07-17T00:06:03.567Z,55.20
2018-07-17T00:08:08.714Z,54.20
2018-07-17T00:10:13.928Z,54.60
2018-07-17T00:12:19.788Z,55.80
2018-07-17T00:14:27.824Z,56.30
2018-07-17T00:16:35.940Z,56.50
2018-07-17T00:18:40.998Z,56.90
2018-07-17T00:22:51.009Z,57.40
2018-07-17T00:24:56.261Z,57.30
2018-07-17T00:27:01.337Z,57.60
2018-07-17T00:29:06.673Z,57.80
2018-07-17T00:31:11.770Z,57.50
2018-07-17T00:33:16.989Z,57.70
2018-07-17T00:35:22.175Z,57.70
2018-07-17T00:37:27.261Z,57.80
2018-07-17T00:39:32.339Z,57.80
2018-07-17T00:41:37.063Z,58.20
2018-07-17T00:43:42.164Z,58.40
2018-07-17T00:45:46.865Z,58.60
2018-07-17T00:47:51.606Z,58.90
2018-07-17T00:49:56.318Z,58.70
2018-07-17T00:52:01.014Z,58.70
2018-07-17T00:54:05.808Z,58.80
2018-07-17T00:56:10.501Z,58.50
2018-07-17T00:58:15.225Z,58.60
2018-07-17T01:00:19.957Z,58.40
2018-07-17T01:02:29.808Z,56.40
2018-07-17T01:04:39.497Z,56.50
2018-07-17T01:06:49.364Z,56.10
2018-07-17T01:08:59.145Z,56.10
2018-07-17T01:11:08.908Z,55.10
2018-07-17T01:13:15.766Z,54.70
2018-07-17T01:15:25.561Z,55.00
2018-07-17T01:17:30.597Z,55.60
2018-07-17T01:19:35.681Z,55.20
2018-07-17T01:21:40.726Z,55.60
2018-07-17T01:23:45.525Z,56.20
2018-07-17T01:25:50.228Z,56.20
2018-07-17T01:27:55.067Z,56.80
2018-07-17T01:29:59.821Z,57.00
2018-07-17T01:32:04.771Z,57.20
2018-07-17T01:34:09.538Z,57.40
2018-07-17T01:36:14.325Z,57.60
2018-07-17T01:38:19.227Z,57.70
2018-07-17T01:40:24.092Z,58.10
2018-07-17T01:42:29.157Z,58.00
2018-07-17T01:44:34.188Z,58.40
2018-07-17T01:46:39.312Z,58.60
2018-07-17T01:48:43.966Z,58.80
2018-07-17T01:50:48.597Z,59.10
2018-07-17T01:52:53.344Z,59.20
2018-07-17T01:54:58.663Z,59.60
2018-07-17T01:57:03.983Z,59.50
2018-07-17T01:59:08.935Z,59.80
2018-07-17T02:01:13.647Z,59.90
2018-07-17T02:03:18.303Z,60.40
2018-07-17T02:05:22.963Z,60.30
2018-07-17T02:07:27.739Z,61.40
2018-07-17T02:09:32.474Z,61.70
2018-07-17T02:11:37.303Z,61.40
2018-07-17T02:13:41.966Z,61.70
2018-07-17T02:15:46.913Z,62.30
2018-07-17T02:17:51.903Z,62.40
2018-07-17T02:19:56.562Z,62.50
2018-07-17T02:22:01.315Z,62.00
2018-07-17T02:24:06.116Z,62.00
2018-07-17T02:26:10.829Z,62.50
2018-07-17T02:28:15.563Z,62.30
2018-07-17T02:30:20.403Z,62.80
2018-07-17T02:32:25.188Z,62.30
2018-07-17T02:34:29.934Z,62.70
2018-07-17T02:36:34.681Z,62.70
2018-07-17T02:38:39.638Z,63.50
2018-07-17T02:40:44.314Z,63.70
2018-07-17T02:42:49.000Z,63.70
2018-07-17T02:44:53.707Z,63.10
2018-07-17T02:46:58.456Z,63.30
2018-07-17T02:49:03.243Z,63.00
2018-07-17T02:51:08.056Z,63.20
2018-07-17T02:53:12.794Z,63.10
2018-07-17T02:55:17.489Z,63.30
2018-07-17T02:57:22.200Z,63.60
2018-07-17T02:59:26.912Z,63.70
2018-07-17T03:01:31.618Z,63.10
2018-07-17T03:03:36.271Z,63.40
2018-07-17T03:05:40.964Z,63.90
2018-07-17T03:07:45.626Z,63.40
2018-07-17T03:09:50.305Z,63.90
2018-07-17T03:11:55.058Z,63.80
2018-07-17T03:13:59.752Z,64.00
2018-07-17T03:16:04.471Z,64.20
2018-07-17T03:18:09.289Z,63.70
2018-07-17T03:20:15.062Z,64.00
2018-07-17T03:22:19.712Z,64.40
2018-07-17T03:24:24.410Z,64.70
2018-07-17T03:26:29.061Z,64.80
2018-07-17T03:28:33.815Z,65.50
2018-07-17T03:30:38.506Z,65.50
2018-07-17T03:32:43.521Z,66.00
2018-07-17T03:34:48.262Z,65.80
2018-07-17T03:36:53.246Z,65.60
2018-07-17T03:38:58.368Z,66.70
2018-07-17T03:41:03.411Z,66.50
2018-07-17T03:43:08.349Z,67.80
2018-07-17T03:45:13.069Z,68.10
2018-07-17T03:47:17.743Z,68.30
2018-07-17T03:49:22.389Z,68.20
2018-07-17T03:51:27.297Z,68.80
2018-07-17T03:53:32.040Z,69.10
2018-07-17T03:55:36.745Z,69.70
2018-07-17T03:57:41.870Z,70.00
2018-07-17T03:59:46.905Z,70.10
2018-07-17T04:01:51.872Z,70.90
2018-07-17T04:03:56.598Z,71.80
2018-07-17T04:06:01.780Z,72.00
2018-07-17T04:08:06.496Z,72.40
2018-07-17T04:10:11.380Z,73.90
2018-07-17T04:12:16.361Z,74.40
2018-07-17T04:14:21.688Z,74.40
2018-07-17T04:16:26.734Z,74.50
2018-07-17T04:18:31.548Z,76.00
2018-07-17T04:20:36.306Z,76.40
2018-07-17T04:22:41.577Z,76.50
2018-07-17T04:24:46.710Z,77.00
2018-07-17T04:28:56.151Z,77.70
2018-07-17T04:31:00.839Z,78.00
2018-07-17T04:33:06.089Z,78.80
2018-07-17T04:35:10.866Z,79.50
2018-07-17T04:37:15.614Z,80.10
2018-07-17T04:39:20.611Z,79.70
2018-07-17T04:41:25.377Z,79.60
2018-07-17T04:45:35.064Z,80.50
2018-07-17T04:47:40.159Z,80.00
2018-07-17T04:49:45.273Z,80.50
2018-07-17T04:51:50.281Z,80.50
2018-07-17T04:53:54.998Z,80.80
2018-07-17T04:55:59.743Z,81.80
2018-07-17T04:58:04.776Z,81.50
2018-07-17T05:00:10.017Z,81.40
2018-07-17T05:02:15.823Z,81.60
2018-07-17T05:04:21.741Z,80.80
2018-07-17T05:06:26.806Z,81.50
2018-07-17T05:08:32.084Z,81.70
2018-07-17T05:10:36.905Z,81.70
2018-07-17T05:12:41.719Z,82.60
2018-07-17T05:14:46.493Z,82.80
2018-07-17T05:16:51.350Z,83.00
2018-07-17T05:18:56.168Z,83.10
2018-07-17T05:21:01.216Z,84.40
2018-07-17T05:25:12.328Z,85.10
2018-07-17T05:27:18.135Z,84.60
2018-07-17T05:29:23.472Z,84.30
2018-07-17T05:31:28.491Z,85.10
2018-07-17T05:33:33.464Z,85.70
2018-07-17T05:35:38.620Z,86.30
2018-07-17T05:37:43.494Z,85.30
2018-07-17T05:41:53.034Z,84.70
2018-07-17T05:46:02.560Z,85.90
2018-07-17T05:48:07.420Z,86.00
2018-07-17T05:50:13.121Z,85.40
2018-07-17T05:52:18.137Z,85.80
2018-07-17T05:54:23.243Z,84.70
2018-07-17T05:56:28.275Z,84.30
2018-07-17T05:58:33.322Z,83.80
2018-07-17T06:00:38.571Z,83.90
2018-07-17T06:02:43.782Z,84.50
2018-07-17T06:06:53.154Z,82.90
2018-07-17T06:08:58.319Z,82.30
2018-07-17T06:11:03.269Z,82.50
2018-07-17T06:13:08.411Z,82.00
2018-07-17T06:15:13.495Z,81.40
2018-07-17T06:17:18.285Z,80.40
2018-07-17T06:19:23.125Z,80.30
2018-07-17T06:21:28.567Z,80.20
2018-07-17T06:23:33.841Z,78.90
2018-07-17T06:25:39.201Z,78.00
2018-07-17T06:27:43.966Z,78.00
2018-07-17T06:29:48.729Z,77.20
2018-07-17T06:31:53.524Z,76.80
2018-07-17T06:33:58.624Z,75.20
2018-07-17T06:36:03.845Z,75.30
2018-07-17T06:38:08.830Z,74.60
2018-07-17T06:40:13.614Z,74.50
2018-07-17T06:42:18.787Z,74.40
2018-07-17T06:44:23.917Z,74.60
2018-07-17T06:46:28.653Z,74.80
2018-07-17T06:48:33.727Z,75.10
2018-07-17T06:50:38.916Z,74.80
2018-07-17T06:52:43.665Z,75.30
2018-07-17T06:54:48.469Z,75.00
2018-07-17T06:58:58.097Z,76.20
2018-07-17T07:01:03.198Z,76.50
2018-07-17T07:03:07.997Z,77.50
2018-07-17T07:05:12.915Z,76.70
2018-07-17T07:07:17.858Z,76.70
2018-07-17T07:09:22.853Z,76.20
2018-07-17T07:11:28.029Z,75.20
2018-07-17T07:13:33.195Z,76.00
2018-07-17T07:15:37.970Z,76.40
2018-07-17T07:19:54.901Z,76.70
2018-07-17T07:22:00.093Z,76.70
2018-07-17T07:24:05.457Z,76.30
2018-07-17T07:26:10.348Z,75.50
2018-07-17T07:28:15.234Z,75.00
2018-07-17T07:30:20.088Z,74.30
2018-07-17T07:32:25.797Z,74.70
2018-07-17T07:34:30.781Z,74.30
2018-07-17T07:36:35.854Z,74.20
2018-07-17T07:38:40.754Z,74.10
2018-07-17T07:40:45.654Z,73.40
2018-07-17T07:42:50.727Z,73.70
2018-07-17T07:44:55.903Z,72.30
2018-07-17T07:47:01.020Z,71.00
2018-07-17T07:49:06.145Z,71.40
2018-07-17T07:53:16.390Z,71.60
2018-07-17T07:55:21.725Z,72.10
2018-07-17T07:57:26.685Z,72.50
2018-07-17T07:59:31.663Z,73.00
2018-07-17T08:01:36.609Z,72.80
2018-07-17T08:03:41.578Z,73.10
2018-07-17T08:05:46.847Z,73.30
2018-07-17T08:07:51.758Z,73.10
2018-07-17T08:09:56.549Z,72.80
2018-07-17T08:12:01.560Z,73.30
2018-07-17T08:14:06.695Z,73.30
2018-07-17T08:16:11.733Z,73.90
2018-07-17T08:18:16.579Z,73.90
2018-07-17T08:20:21.508Z,73.00
2018-07-17T08:22:26.683Z,72.90
2018-07-17T08:24:31.487Z,72.40
2018-07-17T08:26:36.379Z,72.00
2018-07-17T08:28:41.180Z,72.00
2018-07-17T08:30:46.011Z,71.70
2018-07-17T08:32:51.299Z,71.70
2018-07-17T08:34:57.740Z,72.40
2018-07-17T08:37:04.897Z,71.70
2018-07-17T08:39:10.918Z,71.70
2018-07-17T08:41:15.906Z,72.30
2018-07-17T08:43:21.049Z,71.10
2018-07-17T08:45:26.217Z,69.80
2018-07-17T08:47:31.288Z,68.90
2018-07-17T08:49:36.377Z,68.60
2018-07-17T08:53:46.178Z,68.30
2018-07-17T08:55:51.195Z,68.20
2018-07-17T08:57:56.401Z,69.10
2018-07-17T09:00:01.980Z,69.00
2018-07-17T09:02:08.641Z,67.40
2018-07-17T09:04:13.591Z,68.10
2018-07-17T09:06:18.564Z,66.50
2018-07-17T09:08:23.422Z,67.10
2018-07-17T09:10:28.869Z,67.10
2018-07-17T09:12:34.228Z,68.00
2018-07-17T09:14:39.486Z,66.00
2018-07-17T09:16:44.486Z,65.20
2018-07-17T09:18:49.518Z,64.00
2018-07-17T09:20:54.634Z,63.90
2018-07-17T09:22:59.723Z,63.50
2018-07-17T09:25:04.787Z,64.20
2018-07-17T09:27:09.900Z,65.00
2018-07-17T09:29:15.466Z,63.70
2018-07-17T09:31:20.460Z,62.10
2018-07-17T09:33:25.746Z,61.40
2018-07-17T09:35:30.868Z,60.20
2018-07-17T09:37:36.770Z,59.50
2018-07-17T09:39:41.740Z,57.90
2018-07-17T09:41:47.125Z,57.80
2018-07-17T09:43:52.422Z,58.20
2018-07-17T09:45:57.999Z,58.30
2018-07-17T09:48:03.372Z,58.80
2018-07-17T09:50:08.722Z,58.80
2018-07-17T09:52:13.660Z,59.00
2018-07-17T09:54:18.525Z,59.60
2018-07-17T09:56:23.391Z,59.00
2018-07-17T09:58:28.710Z,59.30
2018-07-17T10:00:36.092Z,59.00
2018-07-17T10:02:41.597Z,56.90
2018-07-17T10:04:52.771Z,56.50
2018-07-17T10:06:57.763Z,55.10
2018-07-17T10:09:02.961Z,55.10
2018-07-17T10:11:07.912Z,54.80
2018-07-17T10:13:13.117Z,55.60
2018-07-17T10:15:18.414Z,54.40
2018-07-17T10:17:23.678Z,54.80
2018-07-17T10:19:28.727Z,55.20
2018-07-17T10:21:34.390Z,54.90
2018-07-17T10:23:40.864Z,54.80
2018-07-17T10:25:45.688Z,55.50
2018-07-17T10:27:50.524Z,54.70
2018-07-17T10:29:55.617Z,53.80
2018-07-17T10:32:01.317Z,53.60
2018-07-17T10:34:06.617Z,53.90
2018-07-17T10:36:11.772Z,53.10
2018-07-17T10:38:16.654Z,52.60
2018-07-17T10:40:24.035Z,52.10
2018-07-17T10:42:37.785Z,52.30
2018-07-17T10:44:42.805Z,51.80
2018-07-17T10:46:59.396Z,52.30
2018-07-17T10:49:06.599Z,52.20
2018-07-17T10:51:11.611Z,52.00
2018-07-17T10:53:22.889Z,51.30
2018-07-17T10:55:27.902Z,50.60
2018-07-17T10:57:32.695Z,50.80
2018-07-17T10:59:37.684Z,50.30
2018-07-17T11:01:45.696Z,49.60
2018-07-17T11:03:57.651Z,49.20
2018-07-17T11:06:02.439Z,49.60
2018-07-17T11:08:07.763Z,49.90
2018-07-17T11:10:12.732Z,50.70
2018-07-17T11:12:19.954Z,48.50
2018-07-17T11:14:38.828Z,48.60
2018-07-17T11:16:43.989Z,48.10
2018-07-17T11:18:55.890Z,48.40
2018-07-17T11:21:15.202Z,48.10
2018-07-17T11:23:32.032Z,47.70
2018-07-17T11:25:44.652Z,47.30
2018-07-17T11:27:49.682Z,46.60
2018-07-17T11:29:54.817Z,46.00
2018-07-17T11:32:00.316Z,46.30
2018-07-17T11:34:05.372Z,45.20
2018-07-17T11:36:12.097Z,45.60
2018-07-17T11:38:17.509Z,45.70
2018-07-17T11:40:22.414Z,45.30
2018-07-17T11:42:27.677Z,45.60
2018-07-17T11:44:37.540Z,45.80
2018-07-17T11:46:44.559Z,45.60
2018-07-17T11:48:52.304Z,45.60
2018-07-17T11:51:01.915Z,45.40
2018-07-17T11:53:11.610Z,45.60
2018-07-17T11:55:17.173Z,45.70
2018-07-17T11:57:32.969Z,45.60
2018-07-17T11:59:38.199Z,45.00
2018-07-17T12:01:44.690Z,45.30
2018-07-17T12:03:52.472Z,45.10
2018-07-17T12:05:59.989Z,45.00
2018-07-17T12:08:15.136Z,45.20
2018-07-17T12:10:34.718Z,44.90
2018-07-17T12:12:43.222Z,45.30
2018-07-17T12:14:49.325Z,45.40
2018-07-17T12:17:05.954Z,45.60
2018-07-17T12:19:12.325Z,44.90
2018-07-17T12:21:17.505Z,45.40
2018-07-17T12:23:24.882Z,45.70
2018-07-17T12:25:34.848Z,45.50
2018-07-17T12:27:41.028Z,44.60
2018-07-17T12:29:46.881Z,44.20
2018-07-17T12:31:59.758Z,43.10
2018-07-17T12:34:05.251Z,44.30
2018-07-17T12:36:12.159Z,44.20
2018-07-17T12:38:29.874Z,43.90
2018-07-17T12:40:42.601Z,44.50
2018-07-17T12:42:48.527Z,44.30
2018-07-17T12:44:54.050Z,44.70
2018-07-17T12:47:03.949Z,44.90
2018-07-17T12:49:11.780Z,44.40
2018-07-17T12:53:33.513Z,44.30
2018-07-17T12:55:44.809Z,44.60
2018-07-17T12:57:50.205Z,44.30
2018-07-17T12:59:57.841Z,44.90
2018-07-17T13:02:02.839Z,44.10
2018-07-17T13:04:08.507Z,44.50
2018-07-17T13:06:15.660Z,44.10
2018-07-17T13:08:20.786Z,44.10
2018-07-17T13:10:49.792Z,44.10
2018-07-17T13:12:59.729Z,45.20
2018-07-17T13:15:05.572Z,43.90
2018-07-17T13:17:19.750Z,44.70
2018-07-17T13:19:43.662Z,44.80
2018-07-17T13:21:48.508Z,43.90
2018-07-17T13:23:55.675Z,43.00
2018-07-17T13:26:00.466Z,42.80
2018-07-17T13:28:05.416Z,43.40
2018-07-17T13:30:10.300Z,43.30
2018-07-17T13:32:15.140Z,42.70
2018-07-17T13:34:23.098Z,43.30
2018-07-17T13:36:32.555Z,43.10
2018-07-17T13:38:37.576Z,43.30
2018-07-17T13:40:54.580Z,42.80
2018-07-17T13:43:23.013Z,42.80
2018-07-17T13:45:28.136Z,42.30
2018-07-17T13:47:38.524Z,42.00
2018-07-17T13:49:57.855Z,42.40
2018-07-17T13:52:02.868Z,42.00
2018-07-17T13:54:16.552Z,42.70
2018-07-17T13:56:21.942Z,42.50
2018-07-17T13:58:28.449Z,41.90
2018-07-17T14:00:50.152Z,42.30
2018-07-17T14:02:57.522Z,42.40
2018-07-17T14:05:02.351Z,42.40
2018-07-17T14:07:10.836Z,42.30
2018-07-17T14:09:15.876Z,42.10
2018-07-17T14:11:21.040Z,42.20
2018-07-17T14:13:25.934Z,41.50
2018-07-17T14:15:33.608Z,41.80
2018-07-17T14:17:40.898Z,41.90
2018-07-17T14:19:58.544Z,41.50
2018-07-17T14:22:05.881Z,41.70
2018-07-17T14:24:10.752Z,41.10
2018-07-17T14:26:16.685Z,41.10
2018-07-17T14:28:25.049Z,40.60
2018-07-17T14:30:29.992Z,40.90
2018-07-17T14:32:45.339Z,41.10
2018-07-17T14:34:50.101Z,41.10
2018-07-17T14:36:57.082Z,41.30
2018-07-17T14:39:16.719Z,41.30
2018-07-17T14:41:21.519Z,41.10
2018-07-17T14:43:27.830Z,41.30
2018-07-17T14:45:35.990Z,41.00
2018-07-17T14:47:42.987Z,40.80
2018-07-17T14:49:48.265Z,40.30
2018-07-17T14:51:53.278Z,41.10
2018-07-17T14:53:58.261Z,40.50
2018-07-17T14:56:03.069Z,40.20
2018-07-17T14:58:08.451Z,40.20
2018-07-17T15:00:17.869Z,40.50
2018-07-17T15:02:27.025Z,41.20
2018-07-17T15:04:34.990Z,40.10
2018-07-17T15:06:55.688Z,39.70
2018-07-17T15:09:00.646Z,40.10
2018-07-17T15:11:10.951Z,40.30
2018-07-17T15:13:15.723Z,40.60
2018-07-17T15:15:20.844Z,40.80
2018-07-17T15:17:30.255Z,40.60
2018-07-17T15:19:35.624Z,41.00
2018-07-17T15:21:41.238Z,41.10
2018-07-17T15:23:46.531Z,41.50
2018-07-17T15:25:52.787Z,42.00
2018-07-17T15:27:59.979Z,42.20
2018-07-17T15:30:16.068Z,41.80
2018-07-17T15:32:21.632Z,42.70
2018-07-17T15:34:26.766Z,44.00
2018-07-17T15:36:32.436Z,43.60
2018-07-17T15:38:37.611Z,44.30
2018-07-17T15:40:42.598Z,43.70
2018-07-17T15:42:49.380Z,43.90
2018-07-17T15:44:54.542Z,44.50
2018-07-17T15:46:59.924Z,44.80
2018-07-17T15:49:04.913Z,45.40
2018-07-17T15:51:10.081Z,45.20
2018-07-17T15:53:15.391Z,45.10
2018-07-17T15:55:20.339Z,45.60
2018-07-17T15:57:25.262Z,45.40
2018-07-17T15:59:30.099Z,45.50
2018-07-17T16:01:34.934Z,45.10
2018-07-17T16:03:40.112Z,45.20
2018-07-17T16:05:44.952Z,45.40
2018-07-17T16:07:51.557Z,45.60
2018-07-17T16:09:57.121Z,45.50
2018-07-17T16:12:03.192Z,45.50
2018-07-17T16:14:15.412Z,44.90
2018-07-17T16:16:20.368Z,45.20
2018-07-17T16:18:32.496Z,45.30
2018-07-17T16:20:51.897Z,45.50
2018-07-17T16:23:18.046Z,45.00
2018-07-17T16:25:24.864Z,45.00
2018-07-17T16:27:47.034Z,44.90
2018-07-17T16:30:01.581Z,44.50
2018-07-17T16:32:10.083Z,45.00
2018-07-17T16:34:27.444Z,45.20
2018-07-17T16:36:35.893Z,45.60
2018-07-17T16:38:41.170Z,45.40
2018-07-17T16:40:50.212Z,45.60
2018-07-17T16:42:59.358Z,46.20
2018-07-17T16:45:15.461Z,46.60
2018-07-17T16:47:34.591Z,46.90
2018-07-17T16:49:46.217Z,47.30
2018-07-17T16:52:14.865Z,47.30
2018-07-17T16:54:39.580Z,47.20
2018-07-17T16:56:58.958Z,47.30
2018-07-17T16:59:08.441Z,46.80
2018-07-17T17:01:17.967Z,46.20
2018-07-17T17:03:27.059Z,46.20
2018-07-17T17:05:40.148Z,45.50
2018-07-17T17:07:51.021Z,44.80
2018-07-17T17:16:22.312Z,44.60
2018-07-17T17:18:29.988Z,45.30
2018-07-17T17:20:51.372Z,44.90
2018-07-17T17:22:58.664Z,44.20
2018-07-17T17:25:06.182Z,45.20
2018-07-17T17:27:14.126Z,46.20
2018-07-17T17:29:21.365Z,46.80
2018-07-17T17:31:29.463Z,47.20
2018-07-17T17:33:34.877Z,47.10
2018-07-17T17:35:40.675Z,47.60
2018-07-17T17:37:45.508Z,47.30
2018-07-17T17:40:01.503Z,47.50
2018-07-17T17:42:06.373Z,47.60
2018-07-17T17:44:11.264Z,48.00
2018-07-17T17:46:17.826Z,47.90
2018-07-17T17:48:41.263Z,48.10
2018-07-17T17:50:46.346Z,47.70
2018-07-17T17:52:51.186Z,48.60
2018-07-17T17:55:16.440Z,48.40
2018-07-17T17:57:21.529Z,46.80
2018-07-17T17:59:36.025Z,46.40
2018-07-17T18:01:41.212Z,45.80
2018-07-17T18:03:51.524Z,45.30
2018-07-17T18:06:15.416Z,45.00
2018-07-17T18:08:39.448Z,44.30
2018-07-17T18:10:44.905Z,43.90
2018-07-17T18:12:51.322Z,44.50
2018-07-17T18:15:20.092Z,44.30
2018-07-17T18:17:43.491Z,44.40
2018-07-17T18:20:01.169Z,44.60
2018-07-17T18:22:11.343Z,46.50
2018-07-17T18:24:33.710Z,48.10
2018-07-17T18:26:39.381Z,48.90
2018-07-17T18:28:44.290Z,49.60
2018-07-17T18:30:49.957Z,50.00
2018-07-17T18:33:02.934Z,50.60
2018-07-17T18:35:10.350Z,51.20
2018-07-17T18:37:21.056Z,51.90
2018-07-17T18:39:29.924Z,52.80
2018-07-17T18:41:41.675Z,53.40
2018-07-17T18:43:55.108Z,54.00
2018-07-17T18:46:03.150Z,54.90
2018-07-17T18:48:12.924Z,55.30
2018-07-17T18:50:21.534Z,55.70
2018-07-17T18:52:26.880Z,55.50
2018-07-17T18:54:36.299Z,55.40
2018-07-17T18:56:41.763Z,55.40
2018-07-17T18:58:46.911Z,55.50
2018-07-17T19:01:03.098Z,55.70
2018-07-17T19:03:28.552Z,55.70
2018-07-17T19:05:34.355Z,56.00
2018-07-17T19:07:39.468Z,56.20
2018-07-17T19:09:44.584Z,55.80
2018-07-17T19:11:49.742Z,55.90
2018-07-17T19:14:02.744Z,55.80
2018-07-17T19:16:14.719Z,55.70
2018-07-17T19:18:43.807Z,55.80
2018-07-17T19:20:49.076Z,56.00
2018-07-17T19:22:55.608Z,56.20
2018-07-17T19:25:13.774Z,56.30
2018-07-17T19:27:23.422Z,56.60
2018-07-17T19:29:36.728Z,56.80
2018-07-17T19:31:45.655Z,56.70
2018-07-17T19:33:57.594Z,57.30
2018-07-17T19:36:08.014Z,57.10
2018-07-17T19:38:27.685Z,57.10
2018-07-17T19:40:38.377Z,57.30
2018-07-17T19:43:01.510Z,57.30
2018-07-17T19:45:08.320Z,57.60
2018-07-17T19:47:25.224Z,57.60
2018-07-17T19:49:33.290Z,57.50
2018-07-17T19:51:39.960Z,57.90
2018-07-17T19:53:48.535Z,57.80
2018-07-17T19:56:00.154Z,58.00
2018-07-17T19:58:10.019Z,58.30
2018-07-17T20:00:16.607Z,58.10
2018-07-17T20:02:22.894Z,58.10
2018-07-17T20:04:52.371Z,57.70
2018-07-17T20:07:19.557Z,57.50
2018-07-17T20:09:26.663Z,57.50
2018-07-17T20:11:34.243Z,57.60
2018-07-17T20:13:39.543Z,57.50
2018-07-17T20:15:44.658Z,57.70
2018-07-17T20:17:50.175Z,57.80
2018-07-17T20:19:55.054Z,57.50
2018-07-17T20:22:00.077Z,57.60
2018-07-17T20:24:05.139Z,57.70
2018-07-17T20:26:10.857Z,57.80
2018-07-17T20:28:16.505Z,57.40
2018-07-17T20:30:21.717Z,57.50
2018-07-17T20:32:26.732Z,57.90
2018-07-17T20:34:32.331Z,58.10
2018-07-17T20:36:37.302Z,58.30
2018-07-17T20:38:43.665Z,58.40
2018-07-17T20:40:49.014Z,57.90
2018-07-17T20:42:53.937Z,57.80
2018-07-17T20:47:06.805Z,57.30
2018-07-17T20:49:12.358Z,56.80
2018-07-17T20:51:17.591Z,57.50
2018-07-17T20:57:32.803Z,56.70
2018-07-17T20:59:37.727Z,57.10
2018-07-17T21:03:47.519Z,57.40
2018-07-17T21:05:52.959Z,57.50
2018-07-17T21:07:58.811Z,57.20
2018-07-17T21:10:03.545Z,57.50
2018-07-17T21:12:08.357Z,57.60
2018-07-17T21:14:15.919Z,57.70
2018-07-17T21:16:24.202Z,58.30
2018-07-17T21:18:29.508Z,58.50
2018-07-17T21:20:34.417Z,59.00
2018-07-17T21:22:39.713Z,59.40
2018-07-17T21:24:44.684Z,59.40
2018-07-17T21:26:49.772Z,59.60
2018-07-17T21:28:54.732Z,59.80
2018-07-17T21:31:00.048Z,60.30
2018-07-17T21:33:04.808Z,60.60
2018-07-17T21:35:09.839Z,60.80
2018-07-17T21:37:14.953Z,61.10
2018-07-17T21:41:24.509Z,61.70
2018-07-17T21:43:29.776Z,62.20
2018-07-17T21:45:34.662Z,62.90
2018-07-17T21:47:39.527Z,62.80
2018-07-17T21:49:44.263Z,62.70
2018-07-17T21:51:49.261Z,62.80
2018-07-17T21:55:58.499Z,63.50
2018-07-17T22:02:14.127Z,63.70
2018-07-17T22:04:18.920Z,64.20
2018-07-17T22:06:23.923Z,64.20
2018-07-17T22:08:28.682Z,64.70
2018-07-17T22:12:38.020Z,65.10
2018-07-17T22:14:42.806Z,64.90
2018-07-17T22:16:47.515Z,64.80
2018-07-17T22:18:52.553Z,64.60
2018-07-17T22:21:02.449Z,64.60
2018-07-17T22:23:07.436Z,64.90
2018-07-17T22:25:12.213Z,64.80
2018-07-17T22:27:16.935Z,64.80
2018-07-17T22:31:26.113Z,65.40
2018-07-17T22:33:31.059Z,65.30
2018-07-17T22:35:36.130Z,65.60
2018-07-17T22:39:45.622Z,66.60
2018-07-17T22:41:50.544Z,66.70
2018-07-17T22:43:55.270Z,66.80
2018-07-17T22:46:00.097Z,67.00
2018-07-17T22:50:09.305Z,67.20
2018-07-17T22:52:14.037Z,66.80
2018-07-17T22:54:18.954Z,66.90
2018-07-17T22:56:23.940Z,67.70
2018-07-17T22:58:28.847Z,67.60
2018-07-17T23:00:33.831Z,67.70
2018-07-17T23:02:38.949Z,68.10
2018-07-17T23:04:43.770Z,68.40
2018-07-17T23:06:48.542Z,68.60
2018-07-17T23:10:57.964Z,69.50
2018-07-17T23:13:02.675Z,69.30
2018-07-17T23:15:07.597Z,69.70
2018-07-17T23:17:13.079Z,69.60
2018-07-17T23:21:22.246Z,70.70
2018-07-17T23:23:26.917Z,71.40
2018-07-17T23:25:32.821Z,71.80
2018-07-17T23:27:37.456Z,72.30
2018-07-17T23:29:43.515Z,72.30
2018-07-17T23:31:48.477Z,72.60
2018-07-17T23:33:53.546Z,72.90
2018-07-17T23:38:02.962Z,73.60
2018-07-17T23:40:07.740Z,72.80
2018-07-17T23:42:12.444Z,73.00
2018-07-17T23:44:17.205Z,73.30
2018-07-17T23:46:21.953Z,74.20
2018-07-17T23:48:26.874Z,74.30
2018-07-17T23:50:31.673Z,75.10
2018-07-17T23:52:36.660Z,75.70
2018-07-17T23:54:41.480Z,75.00
2018-07-17T23:58:50.537Z,75.40
